KMKE/MKE METAR and TAF weather

Enter ICAO airport designator
Station Type Date Time Source
KMKE METAR 2020/09/26 22:52 UTC NOAA

KMKE 262252Z 19010KT 10SM BKN200 OVC250 23/18 A2961 RMK AO2 SLP022 T02280178


Station Type Date Time Source
KMKE Decoded METAR 2020/09/26 22:52 UTC NOAA

GEN MITCHELL INTERNATIONAL AIRPORT, WI, United States (KMKE) 42-57N 87-54W 206M
Sep 26, 2020 - 06:52 PM EDT / 2020.09.26 2252 UTC
Wind: from the S (190 degrees) at 12 MPH (10 KT):0
Visibility: 10 mile(s):0
Sky conditions: overcast
Temperature: 73.0 F (22.8 C)
Dew Point: 64.0 F (17.8 C)
Relative Humidity: 73%
Pressure (altimeter): 29.61 in. Hg (1002 hPa)
ob: KMKE 262252Z 19010KT 10SM BKN200 OVC250 23/18 A2961 RMK AO2 SLP022 T02280178
cycle: 23

Station Type Date Time Source
KMKE TAF 2020/09/26 21:58 UTC NOAA

TAF
AMD KMKE 262057Z 2621/2724 20014G25KT P6SM SCT015 BKN200
FM270000 20013G24KT P6SM BKN250 WS020/22045KT
FM270300 21016G24KT P6SM BKN250 WS020/22050KT
FM271000 23013KT P6SM BKN250
FM271300 25008KT P6SM BKN150

Example: see airport list